createdAt,value
2023-02-13T00:00:12.694Z,7.9
2023-02-13T00:01:19.726Z,7.9
2023-02-13T00:02:26.933Z,7.9
2023-02-13T00:03:33.955Z,7.9
2023-02-13T00:04:40.564Z,7.9
2023-02-13T00:05:47.636Z,7.9
2023-02-13T00:06:54.706Z,7.9
2023-02-13T00:08:01.863Z,7.9
2023-02-13T00:09:08.978Z,7.9
2023-02-13T00:10:15.633Z,7.9
2023-02-13T00:11:22.606Z,7.9
2023-02-13T00:12:29.215Z,7.9
2023-02-13T00:12:29.752Z,7.9
2023-02-13T00:13:36.853Z,7.9
2023-02-13T00:14:43.959Z,7.9
2023-02-13T00:15:51.779Z,7.9
2023-02-13T00:16:57.676Z,7.9
2023-02-13T00:18:04.753Z,7.9
2023-02-13T00:19:11.891Z,7.9
2023-02-13T00:20:18.961Z,7.9
2023-02-13T00:21:25.644Z,7.9
2023-02-13T00:22:32.706Z,7.9
2023-02-13T00:23:39.797Z,7.9
2023-02-13T00:24:46.934Z,7.9
2023-02-13T00:25:53.966Z,7.9
2023-02-13T00:28:07.768Z,7.9
2023-02-13T00:29:14.735Z,7.9
2023-02-13T00:30:21.914Z,7.9
2023-02-13T00:31:29.396Z,7.9
2023-02-13T00:32:36.174Z,7.9
2023-02-13T00:33:42.688Z,7.9
2023-02-13T00:34:49.791Z,7.8
2023-02-13T00:35:56.879Z,7.8
2023-02-13T00:37:03.998Z,7.9
2023-02-13T00:38:10.664Z,7.8
2023-02-13T00:39:17.708Z,7.8
2023-02-13T00:40:24.791Z,7.8
2023-02-13T00:41:31.916Z,7.8
2023-02-13T00:42:38.986Z,7.8
2023-02-13T00:43:45.559Z,7.8
2023-02-13T00:44:52.710Z,7.8
2023-02-13T00:45:59.881Z,7.8
2023-02-13T00:47:06.987Z,7.8
2023-02-13T00:48:14.066Z,7.8
2023-02-13T00:49:20.574Z,7.8
2023-02-13T00:50:27.703Z,7.8
2023-02-13T00:51:34.850Z,7.8
2023-02-13T00:52:41.914Z,7.8
2023-02-13T00:53:49.010Z,7.8
2023-02-13T00:54:55.622Z,7.8
2023-02-13T00:56:02.693Z,7.8
2023-02-13T00:57:09.844Z,7.8
2023-02-13T00:58:17.044Z,7.8
2023-02-13T00:59:23.973Z,7.7
2023-02-13T01:01:37.754Z,7.7
2023-02-13T01:02:44.773Z,7.8
2023-02-13T01:03:52.535Z,7.8
2023-02-13T01:04:59.081Z,7.8
2023-02-13T01:06:05.616Z,7.8
2023-02-13T01:07:12.708Z,7.8
2023-02-13T01:08:19.911Z,7.8
2023-02-13T01:09:26.940Z,7.8
2023-02-13T01:10:34.045Z,7.8
2023-02-13T01:11:40.674Z,7.8
2023-02-13T01:12:47.720Z,7.8
2023-02-13T01:13:54.812Z,7.8
2023-02-13T01:15:01.963Z,7.8
2023-02-13T01:16:09.164Z,7.8
2023-02-13T01:17:15.621Z,7.8
2023-02-13T01:18:22.797Z,7.8
2023-02-13T01:19:30.393Z,7.8
2023-02-13T01:20:36.952Z,7.8
2023-02-13T01:21:43.520Z,7.8
2023-02-13T01:22:50.625Z,7.8
2023-02-13T01:23:57.766Z,7.8
2023-02-13T01:25:04.842Z,7.7
2023-02-13T01:26:11.968Z,7.8
2023-02-13T01:27:18.590Z,7.7
2023-02-13T01:28:25.827Z,7.8
2023-02-13T01:29:32.780Z,7.7
2023-02-13T01:30:39.924Z,7.7
2023-02-13T01:31:47.214Z,7.7
2023-02-13T01:32:53.568Z,7.7
2023-02-13T01:34:00.652Z,7.7
2023-02-13T01:35:07.366Z,7.7
2023-02-13T01:36:14.826Z,7.7
2023-02-13T01:37:21.972Z,7.7
2023-02-13T01:38:28.620Z,7.7
2023-02-13T01:39:35.704Z,7.7
2023-02-13T01:40:42.733Z,7.7
2023-02-13T01:41:49.899Z,7.7
2023-02-13T01:42:56.991Z,7.7
2023-02-13T01:44:04.042Z,7.7
2023-02-13T01:45:10.673Z,7.7
2023-02-13T01:46:17.836Z,7.7
2023-02-13T01:47:24.926Z,7.7
2023-02-13T01:48:32.515Z,7.7
2023-02-13T01:49:38.550Z,7.7
2023-02-13T01:50:45.657Z,7.7
2023-02-13T01:51:52.756Z,7.6
2023-02-13T01:52:59.869Z,7.7
2023-02-13T01:54:06.972Z,7.7
2023-02-13T01:56:20.710Z,7.7
2023-02-13T01:57:27.828Z,7.7
2023-02-13T01:58:34.889Z,7.7
2023-02-13T01:59:41.997Z,7.7
2023-02-13T02:00:48.567Z,7.7
2023-02-13T02:01:55.856Z,7.6
2023-02-13T02:03:02.797Z,7.6
2023-02-13T02:05:17.070Z,7.6
2023-02-13T02:06:23.564Z,7.6
2023-02-13T02:07:30.730Z,7.6
2023-02-13T02:08:37.963Z,7.6
2023-02-13T02:09:44.917Z,7.6
2023-02-13T02:10:52.017Z,7.6
2023-02-13T02:11:58.595Z,7.6
2023-02-13T02:13:05.718Z,7.6
2023-02-13T02:14:12.775Z,7.6
2023-02-13T02:15:19.911Z,7.6
2023-02-13T02:16:27.122Z,7.6
2023-02-13T02:17:33.598Z,7.6
2023-02-13T02:18:40.739Z,7.5
2023-02-13T02:19:47.954Z,7.5
2023-02-13T02:20:54.950Z,7.6
2023-02-13T02:22:02.070Z,7.6
2023-02-13T02:23:09.168Z,7.6
2023-02-13T02:24:15.711Z,7.6
2023-02-13T02:25:22.839Z,7.6
2023-02-13T02:26:29.931Z,7.6
2023-02-13T02:27:37.082Z,7.6
2023-02-13T02:28:43.586Z,7.6
2023-02-13T02:29:50.765Z,7.6
2023-02-13T02:30:58.179Z,7.6
2023-02-13T02:32:05.420Z,7.6
2023-02-13T02:33:11.563Z,7.6
2023-02-13T02:34:18.886Z,7.6
2023-02-13T02:35:25.737Z,7.6
2023-02-13T02:36:32.834Z,7.6
2023-02-13T02:37:39.988Z,7.6
2023-02-13T02:38:46.580Z,7.6
2023-02-13T02:39:53.644Z,7.6
2023-02-13T02:41:00.726Z,7.6
2023-02-13T02:42:07.857Z,7.6
2023-02-13T02:43:15.013Z,7.6
2023-02-13T02:44:21.577Z,7.6
2023-02-13T02:45:28.681Z,7.6
2023-02-13T02:46:35.965Z,7.6
2023-02-13T02:47:42.861Z,7.6
2023-02-13T02:48:49.914Z,7.6
2023-02-13T02:49:56.588Z,7.6
2023-02-13T02:51:03.615Z,7.6
2023-02-13T02:52:10.745Z,7.7
2023-02-13T02:53:17.939Z,7.6
2023-02-13T02:54:24.928Z,7.6
2023-02-13T02:55:32.111Z,7.6
2023-02-13T02:56:38.722Z,7.6
2023-02-13T02:57:45.738Z,7.6
2023-02-13T02:58:52.857Z,7.6
2023-02-13T02:59:59.962Z,7.6
2023-02-13T03:01:06.673Z,7.6
2023-02-13T03:02:13.676Z,7.6
2023-02-13T03:03:20.859Z,7.6
2023-02-13T03:04:27.938Z,7.6
2023-02-13T03:05:34.939Z,7.6
2023-02-13T03:06:41.580Z,7.6
2023-02-13T03:08:55.822Z,7.6
2023-02-13T03:10:02.847Z,7.6
2023-02-13T03:11:10.016Z,7.6
2023-02-13T03:12:16.621Z,7.5
2023-02-13T03:13:23.657Z,7.5
2023-02-13T03:14:30.787Z,7.6
2023-02-13T03:15:37.847Z,7.6
2023-02-13T03:16:45.086Z,7.6
2023-02-13T03:17:51.663Z,7.6
2023-02-13T03:18:58.717Z,7.6
2023-02-13T03:20:05.823Z,7.6
2023-02-13T03:21:12.915Z,7.6
2023-02-13T03:22:19.973Z,7.6
2023-02-13T03:24:33.675Z,7.6
2023-02-13T03:25:40.824Z,7.6
2023-02-13T03:26:48.458Z,7.6
2023-02-13T03:27:55.120Z,7.6
2023-02-13T03:29:01.597Z,7.6
2023-02-13T03:30:08.720Z,7.6
2023-02-13T03:31:15.863Z,7.6
2023-02-13T03:32:22.909Z,7.6
2023-02-13T03:33:30.033Z,7.6
2023-02-13T03:34:36.601Z,7.6
2023-02-13T03:35:43.699Z,7.6
2023-02-13T03:36:50.828Z,7.6
2023-02-13T03:37:57.999Z,7.6
2023-02-13T03:39:04.989Z,7.5
2023-02-13T03:40:11.682Z,7.6
2023-02-13T03:41:18.746Z,7.5
2023-02-13T03:42:25.825Z,7.6
2023-02-13T03:43:32.933Z,7.5
2023-02-13T03:44:39.532Z,7.6
2023-02-13T03:45:47.060Z,7.6
2023-02-13T03:46:53.748Z,7.6
2023-02-13T03:48:00.855Z,7.5
2023-02-13T03:49:07.971Z,7.5
2023-02-13T03:50:14.485Z,7.5
2023-02-13T03:51:21.641Z,7.6
2023-02-13T03:52:28.715Z,7.6
2023-02-13T03:53:35.846Z,7.6
2023-02-13T03:54:42.958Z,7.6
2023-02-13T03:55:49.561Z,7.5
2023-02-13T03:56:56.651Z,7.5
2023-02-13T03:58:03.818Z,7.5
2023-02-13T03:59:10.826Z,7.5
2023-02-13T04:00:18.511Z,7.5
2023-02-13T04:01:24.605Z,7.5
2023-02-13T04:02:31.778Z,7.4
2023-02-13T04:03:38.734Z,7.4
2023-02-13T04:04:45.876Z,7.4
2023-02-13T04:05:52.948Z,7.4
2023-02-13T04:07:00.116Z,7.4
2023-02-13T04:08:06.733Z,7.4
2023-02-13T04:09:13.746Z,7.4
2023-02-13T04:10:20.879Z,7.4
2023-02-13T04:12:34.540Z,7.3
2023-02-13T04:13:41.659Z,7.3
2023-02-13T04:14:48.765Z,7.3
2023-02-13T04:15:55.902Z,7.3
2023-02-13T04:17:02.974Z,7.3
2023-02-13T04:18:10.651Z,7.3
2023-02-13T04:19:16.695Z,7.3
2023-02-13T04:20:23.735Z,7.2
2023-02-13T04:21:30.951Z,7.2
2023-02-13T04:22:37.986Z,7.2
2023-02-13T04:23:44.642Z,7.2
2023-02-13T04:24:51.667Z,7.2
2023-02-13T04:25:58.770Z,7.2
2023-02-13T04:27:05.903Z,7.2
2023-02-13T04:28:13.017Z,7.2
2023-02-13T04:29:19.618Z,7.2
2023-02-13T04:30:27.252Z,7.2
2023-02-13T04:31:33.946Z,7.1
2023-02-13T04:32:41.346Z,7.1
2023-02-13T04:33:48.056Z,7.1
2023-02-13T04:34:54.540Z,7.1
2023-02-13T04:36:01.654Z,7.1
2023-02-13T04:37:08.807Z,7.1
2023-02-13T04:38:15.920Z,7.1
2023-02-13T04:39:22.979Z,7.1
2023-02-13T04:40:29.636Z,7.1
2023-02-13T04:41:36.713Z,7.1
2023-02-13T04:42:43.849Z,7
2023-02-13T04:43:50.942Z,7
2023-02-13T04:44:57.997Z,7
2023-02-13T04:46:04.651Z,7
2023-02-13T04:47:11.801Z,6.9
2023-02-13T04:48:18.836Z,6.9
2023-02-13T04:49:25.909Z,6.9
2023-02-13T04:50:32.999Z,6.9
2023-02-13T04:52:46.763Z,6.9
2023-02-13T04:53:53.802Z,6.9
2023-02-13T04:55:00.919Z,6.8
2023-02-13T04:56:08.069Z,6.8
2023-02-13T04:57:14.611Z,6.8
2023-02-13T04:58:21.727Z,6.7
2023-02-13T04:59:28.814Z,6.7
2023-02-13T05:00:35.927Z,6.7
2023-02-13T05:01:42.533Z,6.7
2023-02-13T05:02:49.649Z,6.7
2023-02-13T05:03:56.748Z,6.7
2023-02-13T05:05:03.828Z,6.7
2023-02-13T05:06:10.930Z,6.7
2023-02-13T05:07:17.561Z,6.7
2023-02-13T05:08:24.603Z,6.6
2023-02-13T05:09:31.727Z,6.6
2023-02-13T05:10:38.832Z,6.6
2023-02-13T05:11:45.904Z,6.6
2023-02-13T05:12:52.544Z,6.6
2023-02-13T05:13:59.666Z,6.6
2023-02-13T05:16:13.905Z,6.5
2023-02-13T05:17:20.964Z,6.5
2023-02-13T05:18:28.132Z,6.5
2023-02-13T05:19:34.602Z,6.5
2023-02-13T05:20:41.753Z,6.4
2023-02-13T05:21:48.891Z,6.4
2023-02-13T05:22:55.942Z,6.4
2023-02-13T05:24:02.633Z,6.4
2023-02-13T05:25:09.644Z,6.4
2023-02-13T05:26:16.757Z,6.4
2023-02-13T05:27:23.848Z,6.4
2023-02-13T05:28:31.050Z,6.4
2023-02-13T05:29:37.607Z,6.4
2023-02-13T05:30:44.662Z,6.3
2023-02-13T05:31:52.030Z,6.4
2023-02-13T05:32:58.898Z,6.4
2023-02-13T05:34:06.487Z,6.3
2023-02-13T05:35:12.569Z,6.3
2023-02-13T05:36:19.699Z,6.3
2023-02-13T05:37:26.816Z,6.3
2023-02-13T05:38:33.933Z,6.3
2023-02-13T05:39:41.017Z,6.2
2023-02-13T05:40:47.579Z,6.2
2023-02-13T05:41:54.688Z,6.2
2023-02-13T05:43:01.849Z,6.2
2023-02-13T05:44:08.881Z,6.2
2023-02-13T05:45:15.990Z,6.2
2023-02-13T05:46:22.678Z,6.2
2023-02-13T05:47:29.688Z,6.2
2023-02-13T05:48:36.886Z,6.2
2023-02-13T05:49:43.894Z,6.1
2023-02-13T05:50:50.999Z,6.1
2023-02-13T05:51:57.613Z,6.1
2023-02-13T05:53:04.709Z,6.1
2023-02-13T05:54:11.783Z,6
2023-02-13T05:55:18.918Z,6
2023-02-13T05:56:26.028Z,6
2023-02-13T05:57:34.697Z,6
2023-02-13T05:58:39.731Z,6
2023-02-13T05:59:46.787Z,6
2023-02-13T06:00:53.871Z,6
2023-02-13T06:02:01.008Z,6
2023-02-13T06:03:07.616Z,5.9
2023-02-13T06:04:14.806Z,5.9
2023-02-13T06:05:21.823Z,5.9
2023-02-13T06:06:28.953Z,5.9
2023-02-13T06:07:35.975Z,5.9
2023-02-13T06:08:42.661Z,5.8
2023-02-13T06:09:49.709Z,5.9
2023-02-13T06:10:56.848Z,5.9
2023-02-13T06:12:03.938Z,5.9
2023-02-13T06:13:11.027Z,5.8
2023-02-13T06:14:17.634Z,5.9
2023-02-13T06:15:24.668Z,5.8
2023-02-13T06:16:31.806Z,5.9
2023-02-13T06:17:38.942Z,5.8
2023-02-13T06:21:00.031Z,5.8
2023-02-13T06:22:06.813Z,5.7
2023-02-13T06:23:14.032Z,5.7
2023-02-13T06:24:20.521Z,5.7
2023-02-13T06:25:27.628Z,5.7
2023-02-13T06:26:34.689Z,5.7
2023-02-13T06:27:41.821Z,5.6
2023-02-13T06:28:48.968Z,5.7
2023-02-13T06:29:56.039Z,5.7
2023-02-13T06:31:02.955Z,5.6
2023-02-13T06:32:09.758Z,5.6
2023-02-13T06:33:16.897Z,5.6
2023-02-13T06:34:23.956Z,5.6
2023-02-13T06:35:30.552Z,5.6
2023-02-13T06:36:37.608Z,5.7
2023-02-13T06:37:45.305Z,5.6
2023-02-13T06:38:51.884Z,5.6
2023-02-13T06:39:58.958Z,5.6
2023-02-13T06:41:05.565Z,5.6
2023-02-13T06:42:12.657Z,5.6
2023-02-13T06:43:19.802Z,5.5
2023-02-13T06:44:26.882Z,5.5
2023-02-13T06:45:33.970Z,5.5
2023-02-13T06:46:41.177Z,5.5
2023-02-13T06:47:47.655Z,5.5
2023-02-13T06:48:54.741Z,5.4
2023-02-13T06:50:01.893Z,5.5
2023-02-13T06:51:08.969Z,5.4
2023-02-13T06:52:15.521Z,5.4
2023-02-13T06:53:22.730Z,5.3
2023-02-13T06:54:45.949Z,5.3
2023-02-13T06:55:36.897Z,5.3
2023-02-13T06:56:43.950Z,5.3
2023-02-13T06:57:50.604Z,5.3
2023-02-13T06:58:57.728Z,5.2
2023-02-13T07:00:04.779Z,5.2
2023-02-13T07:01:12.032Z,5.2
2023-02-13T07:02:18.978Z,5.1
2023-02-13T07:03:25.642Z,5.1
2023-02-13T07:04:32.659Z,5.1
2023-02-13T07:05:39.828Z,5.1
2023-02-13T07:06:46.887Z,5.1
2023-02-13T07:07:53.963Z,5.1
2023-02-13T07:09:00.569Z,5.1
2023-02-13T07:10:07.647Z,5
2023-02-13T07:11:14.766Z,5.1
2023-02-13T07:12:21.966Z,5
2023-02-13T07:13:29.126Z,5.1
2023-02-13T07:14:35.594Z,5.1
2023-02-13T07:15:42.717Z,5
2023-02-13T07:16:49.806Z,5
2023-02-13T07:17:56.928Z,5
2023-02-13T07:19:04.043Z,5
2023-02-13T07:20:10.599Z,5
2023-02-13T07:21:17.742Z,5
2023-02-13T07:23:31.990Z,5
2023-02-13T07:24:39.016Z,5
2023-02-13T07:25:47.139Z,5
2023-02-13T07:26:52.701Z,5
2023-02-13T07:27:59.856Z,5
2023-02-13T07:29:11.619Z,5
2023-02-13T07:30:14.008Z,5
2023-02-13T07:31:20.689Z,4.9
2023-02-13T07:32:27.744Z,5
2023-02-13T07:33:34.838Z,5
2023-02-13T07:34:55.766Z,5
2023-02-13T07:35:48.997Z,5
2023-02-13T07:36:55.620Z,5
2023-02-13T07:38:02.753Z,5
2023-02-13T07:39:09.868Z,5
2023-02-13T07:40:16.933Z,5
2023-02-13T07:41:24.529Z,5
2023-02-13T07:42:30.621Z,5
2023-02-13T07:43:37.752Z,5
2023-02-13T07:44:44.831Z,5
2023-02-13T07:45:51.939Z,5
2023-02-13T07:46:59.112Z,5
2023-02-13T07:49:12.801Z,5
2023-02-13T07:50:19.909Z,5
2023-02-13T07:51:27.003Z,5
2023-02-13T07:52:34.077Z,5
2023-02-13T07:53:40.639Z,5.1
2023-02-13T07:54:48.100Z,5.1
2023-02-13T07:55:55.026Z,5.1
2023-02-13T07:57:01.992Z,5
2023-02-13T07:58:09.138Z,5
2023-02-13T07:59:15.619Z,5
2023-02-13T08:00:22.760Z,5
2023-02-13T08:01:29.900Z,5
2023-02-13T08:02:36.990Z,5
2023-02-13T08:03:44.069Z,4.9
2023-02-13T08:04:50.688Z,4.9
2023-02-13T08:05:58.140Z,4.9
2023-02-13T08:07:04.864Z,4.9
2023-02-13T08:08:12.050Z,5
2023-02-13T08:09:19.159Z,4.9
2023-02-13T08:10:25.652Z,4.9
2023-02-13T08:11:32.743Z,4.9
2023-02-13T08:12:39.867Z,4.9
2023-02-13T08:13:47.043Z,4.9
2023-02-13T08:14:53.570Z,4.8
2023-02-13T08:16:00.760Z,4.8
2023-02-13T08:17:07.794Z,4.8
2023-02-13T08:18:14.894Z,4.8
2023-02-13T08:19:22.018Z,4.8
2023-02-13T08:20:28.615Z,4.8
2023-02-13T08:21:35.671Z,4.7
2023-02-13T08:22:42.744Z,4.7
2023-02-13T08:23:49.880Z,4.8
2023-02-13T08:24:57.017Z,4.7
2023-02-13T08:27:10.715Z,4.7
2023-02-13T08:28:17.906Z,4.8
2023-02-13T08:29:24.900Z,4.7
2023-02-13T08:30:32.035Z,4.7
2023-02-13T08:31:38.650Z,4.8
2023-02-13T08:32:53.568Z,4.8
2023-02-13T08:33:52.796Z,4.8
2023-02-13T08:34:59.935Z,4.8
2023-02-13T08:36:07.109Z,4.8
2023-02-13T08:37:13.559Z,4.8
2023-02-13T08:38:20.777Z,4.9
2023-02-13T08:39:27.797Z,4.9
2023-02-13T08:40:34.919Z,4.9
2023-02-13T08:41:42.045Z,4.9
2023-02-13T08:42:48.630Z,4.9
2023-02-13T08:43:55.683Z,4.9
2023-02-13T08:45:03.335Z,4.9
2023-02-13T08:46:10.168Z,4.9
2023-02-13T08:47:17.047Z,4.9
2023-02-13T08:48:23.648Z,4.9
2023-02-13T08:49:30.708Z,4.9
2023-02-13T08:50:37.781Z,4.9
2023-02-13T08:51:44.929Z,4.8
2023-02-13T08:52:52.028Z,4.8
2023-02-13T08:53:58.644Z,4.8
2023-02-13T08:55:05.736Z,4.8
2023-02-13T08:56:12.844Z,4.8
2023-02-13T08:57:19.976Z,4.8
2023-02-13T08:58:27.080Z,4.7
2023-02-13T08:59:33.621Z,4.7
2023-02-13T09:00:40.764Z,4.8
2023-02-13T09:01:47.857Z,4.8
2023-02-13T09:02:54.999Z,4.7
2023-02-13T09:04:02.086Z,4.7
2023-02-13T09:05:08.669Z,4.8
2023-02-13T09:06:15.727Z,4.7
2023-02-13T09:07:22.827Z,4.7
2023-02-13T09:08:30.037Z,4.8
2023-02-13T09:09:37.066Z,4.7
2023-02-13T09:10:43.656Z,4.7
2023-02-13T09:11:50.858Z,4.7
2023-02-13T09:12:57.875Z,4.7
2023-02-13T09:14:04.925Z,4.7
2023-02-13T09:15:12.059Z,4.7
2023-02-13T09:17:25.727Z,4.7
2023-02-13T09:18:32.893Z,4.8
2023-02-13T09:19:39.957Z,4.8
2023-02-13T09:20:46.562Z,4.8
2023-02-13T09:21:53.676Z,4.8
2023-02-13T09:23:00.755Z,4.8
2023-02-13T09:24:07.880Z,4.8
2023-02-13T09:25:14.982Z,4.8
2023-02-13T09:26:22.108Z,4.7
2023-02-13T09:27:28.673Z,4.7
2023-02-13T09:28:35.919Z,4.7
2023-02-13T09:30:50.084Z,4.7
2023-02-13T09:31:57.252Z,4.7
2023-02-13T09:33:03.675Z,4.7
2023-02-13T09:34:10.822Z,4.7
2023-02-13T09:35:17.911Z,4.7
2023-02-13T09:36:25.019Z,4.6
2023-02-13T09:37:31.584Z,4.6
2023-02-13T09:38:38.764Z,4.6
2023-02-13T09:39:45.773Z,4.7
2023-02-13T09:40:52.878Z,4.7
2023-02-13T09:42:00.043Z,4.7
2023-02-13T09:43:07.107Z,4.7
2023-02-13T09:44:13.683Z,4.7
2023-02-13T09:45:20.873Z,4.7
2023-02-13T09:46:27.955Z,4.7
2023-02-13T09:47:35.010Z,4.7
2023-02-13T09:48:42.176Z,4.8
2023-02-13T09:49:48.744Z,4.7
2023-02-13T09:50:55.771Z,4.7
2023-02-13T09:52:02.947Z,4.7
2023-02-13T09:53:10.044Z,4.7
2023-02-13T09:54:16.591Z,4.7
2023-02-13T09:55:23.699Z,4.8
2023-02-13T09:56:30.824Z,4.8
2023-02-13T09:57:37.924Z,4.8
2023-02-13T09:58:45.111Z,4.9
2023-02-13T09:59:51.647Z,4.9
2023-02-13T10:00:58.741Z,4.9
2023-02-13T10:02:05.821Z,4.9
2023-02-13T10:03:12.896Z,4.9
2023-02-13T10:04:20.066Z,4.9
2023-02-13T10:05:26.728Z,4.9
2023-02-13T10:06:33.688Z,5
2023-02-13T10:07:40.901Z,5
2023-02-13T10:08:48.070Z,5
2023-02-13T10:09:55.029Z,5
2023-02-13T10:11:01.606Z,5
2023-02-13T10:12:08.869Z,5.1
2023-02-13T10:13:15.850Z,5.1
2023-02-13T10:14:22.902Z,5.2
2023-02-13T10:15:30.086Z,5.2
2023-02-13T10:16:36.681Z,5.2
2023-02-13T10:17:43.729Z,5.2
2023-02-13T10:18:50.850Z,5.2
2023-02-13T10:19:57.944Z,5.2
2023-02-13T10:21:05.031Z,5.3
2023-02-13T10:22:11.637Z,5.3
2023-02-13T10:23:18.800Z,5.3
2023-02-13T10:24:26.298Z,5.3
2023-02-13T10:25:32.975Z,5.4
2023-02-13T10:26:40.056Z,5.4
2023-02-13T10:27:46.644Z,5.5
2023-02-13T10:28:53.716Z,5.5
2023-02-13T10:30:00.827Z,5.5
2023-02-13T10:31:08.081Z,5.5
2023-02-13T10:32:15.211Z,5.6
2023-02-13T10:34:28.844Z,5.6
2023-02-13T10:35:35.895Z,5.6
2023-02-13T10:36:43.035Z,5.7
2023-02-13T10:37:50.190Z,5.8
2023-02-13T10:38:56.757Z,5.8
2023-02-13T10:40:03.811Z,5.9
2023-02-13T10:41:10.891Z,6
2023-02-13T10:42:17.990Z,6
2023-02-13T10:43:25.144Z,6
2023-02-13T10:44:31.738Z,6
2023-02-13T10:45:38.772Z,6.1
2023-02-13T10:46:46.006Z,6.1
2023-02-13T10:47:52.951Z,6.1
2023-02-13T10:49:00.184Z,6.1
2023-02-13T10:50:06.711Z,6.2
2023-02-13T10:51:13.750Z,6.1
2023-02-13T10:52:21.459Z,6.2
2023-02-13T10:53:28.078Z,6.2
2023-02-13T10:54:35.097Z,6.2
2023-02-13T10:55:41.685Z,6.2
2023-02-13T10:56:48.858Z,6.2
2023-02-13T10:57:55.898Z,6.2
2023-02-13T10:59:03.023Z,6.3
2023-02-13T11:00:10.117Z,6.3
2023-02-13T11:01:16.757Z,6.3
2023-02-13T11:02:23.790Z,6.3
2023-02-13T11:03:30.958Z,6.3
2023-02-13T11:04:38.125Z,6.3
2023-02-13T11:05:47.116Z,6.4
2023-02-13T11:06:51.728Z,6.4
2023-02-13T11:07:58.858Z,6.4
2023-02-13T11:09:05.896Z,6.4
2023-02-13T11:10:12.982Z,6.5
2023-02-13T11:11:19.585Z,6.5
2023-02-13T11:12:26.711Z,6.5
2023-02-13T11:13:33.304Z,6.5
2023-02-13T11:13:33.935Z,6.5
2023-02-13T11:14:40.936Z,6.6
2023-02-13T11:15:48.071Z,6.6
2023-02-13T11:16:54.626Z,6.7
2023-02-13T11:18:01.735Z,6.7
2023-02-13T11:19:08.846Z,6.7
2023-02-13T11:20:15.921Z,6.7
2023-02-13T11:22:29.634Z,6.8
2023-02-13T11:23:36.794Z,6.9
2023-02-13T11:24:43.961Z,6.9
2023-02-13T11:25:50.985Z,7.1
2023-02-13T11:26:58.030Z,7.2
2023-02-13T11:28:04.686Z,7.3
2023-02-13T11:29:11.766Z,7.4
2023-02-13T11:30:18.843Z,7.5
2023-02-13T11:31:26.100Z,7.6
2023-02-13T11:32:33.011Z,7.7
2023-02-13T11:33:39.693Z,7.7
2023-02-13T11:34:46.775Z,7.8
2023-02-13T11:35:53.800Z,7.9
2023-02-13T11:38:08.059Z,7.9
2023-02-13T11:39:14.685Z,8
2023-02-13T11:40:21.740Z,8
2023-02-13T11:41:28.905Z,8
2023-02-13T11:42:35.979Z,8.1
2023-02-13T11:43:43.115Z,8.1
2023-02-13T11:44:49.663Z,8.1
2023-02-13T11:45:57.269Z,8.1
2023-02-13T11:47:03.918Z,8.1
2023-02-13T11:48:11.004Z,8.1
2023-02-13T11:49:18.083Z,8.1
2023-02-13T11:50:24.608Z,8.1
2023-02-13T11:51:31.718Z,8.1
2023-02-13T11:52:38.876Z,8.1
2023-02-13T11:53:45.992Z,8.2
2023-02-13T11:54:53.097Z,8.2
2023-02-13T11:56:00.467Z,8.2
2023-02-13T11:57:06.833Z,8.2
2023-02-13T11:58:13.950Z,8.2
2023-02-13T11:59:20.962Z,8.3
2023-02-13T12:00:28.053Z,8.3
2023-02-13T12:01:34.654Z,8.3
2023-02-13T12:02:41.871Z,8.3
2023-02-13T12:03:49.075Z,8.3
2023-02-13T12:04:56.043Z,8.3
2023-02-13T12:06:03.094Z,8.3
2023-02-13T12:07:09.705Z,8.2
2023-02-13T12:08:16.784Z,8.2
2023-02-13T12:09:23.880Z,8.1
2023-02-13T12:10:30.958Z,8.1
2023-02-13T12:11:38.192Z,8.1
2023-02-13T12:12:44.713Z,8.1
2023-02-13T12:13:51.861Z,8.1
2023-02-13T12:14:58.948Z,8.1
2023-02-13T12:16:06.063Z,8.1
2023-02-13T12:17:25.512Z,8.1
2023-02-13T12:18:19.741Z,8.2
2023-02-13T12:19:26.832Z,8.2
2023-02-13T12:20:33.911Z,8.3
2023-02-13T12:21:41.036Z,8.3
2023-02-13T12:22:48.209Z,8.3
2023-02-13T12:23:54.715Z,8.3
2023-02-13T12:25:01.809Z,8.3
2023-02-13T12:26:08.877Z,8.3
2023-02-13T12:27:16.008Z,8.4
2023-02-13T12:28:23.170Z,8.5
2023-02-13T12:29:29.727Z,8.5
2023-02-13T12:30:36.842Z,8.6
2023-02-13T12:31:43.967Z,8.6
2023-02-13T12:32:51.023Z,8.6
2023-02-13T12:33:57.653Z,8.6
2023-02-13T12:35:04.717Z,8.7
2023-02-13T12:36:11.857Z,8.8
2023-02-13T12:37:18.921Z,8.8
2023-02-13T12:38:26.030Z,8.8
2023-02-13T12:39:32.690Z,8.9
2023-02-13T12:41:46.860Z,9
2023-02-13T12:42:53.898Z,9
2023-02-13T12:44:01.092Z,9
2023-02-13T12:45:07.659Z,9
2023-02-13T12:46:14.893Z,8.9
2023-02-13T12:47:21.831Z,8.9
2023-02-13T12:48:29.077Z,8.9
2023-02-13T12:50:42.609Z,8.9
2023-02-13T12:51:49.739Z,8.8
2023-02-13T12:52:56.831Z,8.8
2023-02-13T12:54:03.393Z,8.8
2023-02-13T12:54:03.962Z,8.8
2023-02-13T12:55:11.059Z,8.8
2023-02-13T12:56:17.678Z,8.8
2023-02-13T12:57:24.724Z,8.8
2023-02-13T12:58:31.870Z,8.8
2023-02-13T12:59:39.544Z,8.8
2023-02-13T13:00:46.168Z,8.8
2023-02-13T13:01:52.611Z,8.9
2023-02-13T13:02:59.751Z,8.9
2023-02-13T13:04:06.846Z,8.8
2023-02-13T13:05:13.983Z,8.8
2023-02-13T13:06:21.069Z,8.9
2023-02-13T13:07:27.625Z,8.9
2023-02-13T13:08:34.811Z,8.9
2023-02-13T13:09:41.871Z,9
2023-02-13T13:10:50.890Z,9
2023-02-13T13:11:56.072Z,9
2023-02-13T13:13:02.665Z,9
2023-02-13T13:14:09.825Z,8.9
2023-02-13T13:15:16.866Z,9
2023-02-13T13:16:24.013Z,9
2023-02-13T13:17:31.094Z,8.9
2023-02-13T13:18:37.722Z,9
2023-02-13T13:19:44.772Z,9
2023-02-13T13:20:51.918Z,9
2023-02-13T13:21:58.992Z,8.9
2023-02-13T13:23:06.085Z,9
2023-02-13T13:24:12.657Z,9
2023-02-13T13:25:19.976Z,9
2023-02-13T13:26:26.892Z,9.1
2023-02-13T13:27:33.963Z,9.1
2023-02-13T13:28:41.162Z,9.2
2023-02-13T13:29:47.720Z,9.2
2023-02-13T13:30:54.924Z,9.2
2023-02-13T13:32:01.990Z,9.3
2023-02-13T13:33:09.001Z,9.3
2023-02-13T13:34:16.146Z,9.3
2023-02-13T13:35:22.702Z,9.3
2023-02-13T13:36:29.835Z,9.3
2023-02-13T13:37:36.894Z,9.3
2023-02-13T13:38:44.033Z,9.3
2023-02-13T13:39:51.128Z,9.3
2023-02-13T13:40:58.083Z,9.3
2023-02-13T13:42:04.767Z,9.3
2023-02-13T13:43:11.942Z,9.3
2023-02-13T13:45:25.569Z,9.3
2023-02-13T13:46:32.752Z,9.3
2023-02-13T13:47:39.822Z,9.3
2023-02-13T13:48:46.990Z,9.3
2023-02-13T13:49:54.165Z,9.3
2023-02-13T13:51:00.822Z,9.3
2023-02-13T13:52:07.741Z,9.2
2023-02-13T13:53:14.818Z,9.2
2023-02-13T13:54:21.955Z,9.2
2023-02-13T13:55:29.072Z,9.2
2023-02-13T13:56:35.582Z,9.2
2023-02-13T13:57:42.713Z,9.2
2023-02-13T13:58:49.872Z,9.2
2023-02-13T13:59:56.989Z,9.2
2023-02-13T14:01:04.113Z,9.1
2023-02-13T14:02:10.645Z,9.1
2023-02-13T14:03:18.300Z,9.1
2023-02-13T14:04:24.852Z,9.1
2023-02-13T14:05:31.986Z,9.1
2023-02-13T14:06:39.106Z,9.1
2023-02-13T14:07:45.620Z,9.1
2023-02-13T14:08:52.770Z,9.1
2023-02-13T14:09:59.866Z,9.1
2023-02-13T14:11:06.985Z,9.1
2023-02-13T14:12:14.024Z,9.1
2023-02-13T14:13:20.636Z,9
2023-02-13T14:14:27.869Z,9
2023-02-13T14:15:34.933Z,9
2023-02-13T14:16:41.488Z,9
2023-02-13T14:18:55.607Z,9
2023-02-13T14:20:03.783Z,9
2023-02-13T14:21:09.889Z,9
2023-02-13T14:22:16.948Z,9
2023-02-13T14:23:24.054Z,9
2023-02-13T14:24:30.769Z,9
2023-02-13T14:25:37.808Z,9
2023-02-13T14:26:44.822Z,9
2023-02-13T14:27:51.934Z,9
2023-02-13T14:28:59.065Z,9
2023-02-13T14:30:05.741Z,9
2023-02-13T14:31:12.897Z,9
2023-02-13T14:32:19.897Z,8.9
2023-02-13T14:33:27.008Z,8.9
2023-02-13T14:34:34.129Z,9
2023-02-13T14:35:40.661Z,9
2023-02-13T14:36:47.772Z,8.9
2023-02-13T14:37:54.881Z,8.9
2023-02-13T14:39:02.098Z,8.9
2023-02-13T14:40:09.074Z,8.9
2023-02-13T14:41:15.632Z,8.9
2023-02-13T14:42:22.789Z,8.9
2023-02-13T14:43:29.873Z,8.9
2023-02-13T14:44:37.033Z,8.9
2023-02-13T14:45:43.592Z,8.8
2023-02-13T14:46:50.697Z,8.8
2023-02-13T14:49:04.999Z,8.8
2023-02-13T14:50:12.037Z,8.8
2023-02-13T14:51:18.575Z,8.8
2023-02-13T14:52:25.707Z,8.8
2023-02-13T14:53:32.771Z,8.8
2023-02-13T14:54:39.991Z,8.7
2023-02-13T14:55:47.293Z,8.7
2023-02-13T14:56:53.605Z,8.7
2023-02-13T14:58:00.661Z,8.7
2023-02-13T14:59:07.825Z,8.7
2023-02-13T15:00:14.877Z,8.7
2023-02-13T15:01:22.103Z,8.7
2023-02-13T15:02:28.609Z,8.7
2023-02-13T15:03:35.712Z,8.6
2023-02-13T15:04:42.840Z,8.6
2023-02-13T15:05:49.936Z,8.6
2023-02-13T15:06:57.595Z,8.6
2023-02-13T15:08:03.610Z,8.6
2023-02-13T15:09:10.784Z,8.6
2023-02-13T15:10:17.833Z,8.6
2023-02-13T15:11:24.941Z,8.6
2023-02-13T15:12:32.044Z,8.6
2023-02-13T15:13:38.694Z,8.6
2023-02-13T15:14:45.688Z,8.6
2023-02-13T15:15:52.977Z,8.6
2023-02-13T15:16:59.972Z,8.5
2023-02-13T15:18:07.036Z,8.5
2023-02-13T15:19:13.675Z,8.5
2023-02-13T15:20:20.726Z,8.5
2023-02-13T15:21:27.857Z,8.5
2023-02-13T15:22:34.939Z,8.5
2023-02-13T15:23:42.041Z,8.5
2023-02-13T15:24:48.679Z,8.5
2023-02-13T15:25:55.737Z,8.5
2023-02-13T15:27:02.804Z,8.5
2023-02-13T15:28:09.979Z,8.5
2023-02-13T15:29:25.886Z,8.5
2023-02-13T15:30:23.627Z,8.5
2023-02-13T15:31:30.800Z,8.5
2023-02-13T15:32:37.865Z,8.5
2023-02-13T15:33:44.968Z,8.5
2023-02-13T15:34:52.102Z,8.5
2023-02-13T15:35:58.664Z,8.4
2023-02-13T15:37:05.754Z,8.4
2023-02-13T15:38:12.822Z,8.4
2023-02-13T15:39:20.224Z,8.4
2023-02-13T15:40:27.091Z,8.4
2023-02-13T15:41:33.666Z,8.4
2023-02-13T15:42:40.801Z,8.4
2023-02-13T15:43:47.845Z,8.4
2023-02-13T15:44:54.966Z,8.4
2023-02-13T15:47:08.700Z,8.3
2023-02-13T15:48:15.755Z,8.3
2023-02-13T15:49:22.838Z,8.3
2023-02-13T15:50:30.006Z,8.3
2023-02-13T15:51:37.083Z,8.3
2023-02-13T15:52:43.735Z,8.2
2023-02-13T15:53:50.763Z,8.3